Time;durP1;ratioP1;P1;durP2;ratioP2;P2;SDS_P1;SDS_P2;PMS_P1;PMS_P2;Temp;Humidity;BMP_temperature;BMP_pressure;BME280_temperature;BME280_humidity;BME280_pressure;Samples;Min_cycle;Max_cycle;Signal;HPM_P1;HPM_P2
2023/10/23 00:00:45;;;;;;;;;;;;;;;13.73;42.47;100337.31;5073209;28;19916;-68
2023/10/23 00:03:10;;;;;;;;;;;;;;;13.75;42.25;100347.91;5089572;28;19981;-68
2023/10/23 00:05:36;;;;;;;;;;;;;;;13.76;42.34;100338.75;5092948;28;19936;-67
2023/10/23 00:08:01;;;;;;;;;;;;;;;13.76;42.01;100338.75;5093049;28;20026;-68
2023/10/23 00:10:26;;;;;;;;;;;;;;;13.78;41.93;100346.63;5092656;28;19924;-68
2023/10/23 00:12:51;;;;;;;;;;;;;;;13.75;41.91;100348.72;5093071;28;19951;-68
2023/10/23 00:15:17;;;;;;;;;;;;;;;13.76;42.02;100352.22;5093183;28;19912;-68
2023/10/23 00:17:42;;;;;;;;;;;;;;;13.77;42.16;100342.28;5094931;28;19919;-68
2023/10/23 00:20:08;;;;;;;;;;;;;;;13.77;42.16;100336.88;5096926;28;19919;-68
2023/10/23 00:22:33;;;;;;;;;;;;;;;13.72;42.25;100340.22;5096919;28;19948;-68
2023/10/23 00:24:58;;;;;;;;;;;;;;;13.72;42.11;100338.38;5078101;28;19919;-68
2023/10/23 00:27:24;;;;;;;;;;;;;;;13.71;42.38;100334.00;5096965;28;20018;-68
2023/10/23 00:29:49;;;;;;;;;;;;;;;13.73;42.20;100331.91;5096472;28;19958;-68
2023/10/23 00:32:14;;;;;;;;;;;;;;;13.69;42.04;100338.81;5096392;28;19913;-68
2023/10/23 00:34:40;;;;;;;;;;;;;;;13.68;42.27;100342.53;5097846;28;19981;-68
2023/10/23 00:37:05;;;;;;;;;;;;;;;13.68;42.21;100336.31;5078287;28;19912;-68
2023/10/23 00:39:30;;;;;;;;;;;;;;;13.66;42.32;100338.41;5096375;28;20520;-68
2023/10/23 00:41:56;;;;;;;;;;;;;;;13.65;42.29;100344.84;5096462;28;19995;-68
2023/10/23 00:44:21;;;;;;;;;;;;;;;13.65;42.22;100351.06;5096448;28;19916;-68
2023/10/23 00:46:47;;;;;;;;;;;;;;;13.62;42.13;100351.50;5096129;28;19952;-68
2023/10/23 00:49:12;;;;;;;;;;;;;;;13.60;42.04;100353.59;5095919;28;19977;-67
2023/10/23 00:51:38;;;;;;;;;;;;;;;13.62;42.17;100353.38;5108830;28;19911;-68
2023/10/23 00:54:05;;;;;;;;;;;;;;;13.59;42.12;100351.94;5095782;27;19969;-68
2023/10/23 00:56:31;;;;;;;;;;;;;;;13.60;42.66;100356.28;5104923;28;19912;-68
2023/10/23 00:58:57;;;;;;;;;;;;;;;13.59;42.30;100351.09;5095773;28;19959;-67
2023/10/23 01:01:22;;;;;;;;;;;;;;;13.60;42.30;100353.59;5077617;28;20376;-67
2023/10/23 01:03:47;;;;;;;;;;;;;;;13.61;42.48;100351.72;5096024;28;20356;-68
2023/10/23 01:06:13;;;;;;;;;;;;;;;13.57;42.38;100353.19;5077822;28;19919;-68
2023/10/23 01:08:38;;;;;;;;;;;;;;;13.56;42.53;100349.69;5095774;28;19978;-68
2023/10/23 01:11:03;;;;;;;;;;;;;;;13.57;42.37;100345.91;5095649;28;19956;-68
2023/10/23 01:13:30;;;;;;;;;;;;;;;13.59;42.33;100353.81;5095796;28;19920;-68
2023/10/23 01:15:55;;;;;;;;;;;;;;;13.61;42.31;100352.53;5096043;28;19912;-68
2023/10/23 01:18:20;;;;;;;;;;;;;;;13.63;42.42;100357.72;5116219;28;20006;-68
2023/10/23 01:20:46;;;;;;;;;;;;;;;13.59;42.25;100351.94;5116580;28;20279;-68
2023/10/23 01:23:11;;;;;;;;;;;;;;;13.60;42.48;100358.16;5098324;28;19927;-68
2023/10/23 01:25:38;;;;;;;;;;;;;;;13.61;42.38;100349.84;5077322;28;19912;-69
2023/10/23 01:28:04;;;;;;;;;;;;;;;13.62;42.62;100351.50;5094801;28;19961;-69
2023/10/23 01:30:29;;;;;;;;;;;;;;;13.61;42.10;100352.53;5095123;28;20322;-68
2023/10/23 01:32:54;;;;;;;;;;;;;;;13.62;42.27;100351.50;5095655;28;19938;-67
2023/10/23 01:35:19;;;;;;;;;;;;;;;13.61;42.05;100349.84;5100840;28;19912;-67
2023/10/23 01:37:45;;;;;;;;;;;;;;;13.60;42.12;100348.19;5077005;28;20019;-68
2023/10/23 01:40:11;;;;;;;;;;;;;;;13.59;42.03;100343.00;5095033;28;19912;-68
2023/10/23 01:42:36;;;;;;;;;;;;;;;13.62;42.16;100348.81;5095011;28;19916;-68
2023/10/23 01:45:02;;;;;;;;;;;;;;;13.62;42.28;100351.50;5095557;28;19916;-69
2023/10/23 01:47:27;;;;;;;;;;;;;;;13.63;42.13;100349.63;5095013;28;19991;-69
2023/10/23 01:49:53;;;;;;;;;;;;;;;13.69;41.96;100351.47;5094679;28;19967;-68
2023/10/23 01:52:18;;;;;;;;;;;;;;;13.70;41.78;100353.13;5113513;28;20341;-68
2023/10/23 01:54:44;;;;;;;;;;;;;;;13.70;41.85;100358.50;5114813;28;20356;-68
2023/10/23 01:57:10;;;;;;;;;;;;;;;13.68;42.37;100353.31;5102124;28;19912;-68
2023/10/23 01:59:35;;;;;;;;;;;;;;;13.68;42.10;100356.03;5095155;28;19912;-68
2023/10/23 02:02:00;;;;;;;;;;;;;;;13.67;41.84;100365.19;5094716;28;19923;-68
2023/10/23 02:04:26;;;;;;;;;;;;;;;13.72;41.83;100359.97;5095046;28;19912;-68
2023/10/23 02:06:51;;;;;;;;;;;;;;;13.73;41.93;100355.38;5094854;28;19959;-68
2023/10/23 02:09:16;;;;;;;;;;;;;;;13.70;42.01;100351.22;5094673;28;20006;-68
2023/10/23 02:11:42;;;;;;;;;;;;;;;13.70;42.14;100353.13;5094365;28;19927;-68
2023/10/23 02:14:07;;;;;;;;;;;;;;;13.72;42.11;100354.56;5094583;28;19912;-68
2023/10/23 02:16:32;;;;;;;;;;;;;;;13.73;42.03;100358.91;5099266;28;19970;-68
2023/10/23 02:18:57;;;;;;;;;;;;;;;13.74;42.04;100359.72;5114541;28;19944;-68
2023/10/23 02:21:23;;;;;;;;;;;;;;;13.71;42.38;100361.00;5096930;28;19916;-68
2023/10/23 02:23:48;;;;;;;;;;;;;;;13.71;42.39;100358.31;5114736;28;20006;-68
2023/10/23 02:26:13;;;;;;;;;;;;;;;13.73;42.27;100364.31;5099188;28;19919;-68
2023/10/23 02:28:39;;;;;;;;;;;;;;;13.73;42.23;100364.31;5094196;28;20002;-68
2023/10/23 02:31:05;;;;;;;;;;;;;;;13.75;42.07;100367.63;5094060;28;19912;-68
2023/10/23 02:33:30;;;;;;;;;;;;;;;13.76;42.16;100373.81;5094131;28;19919;-67
2023/10/23 02:35:55;;;;;;;;;;;;;;;13.73;42.35;100375.09;5099819;28;19912;-67
2023/10/23 02:38:21;;;;;;;;;;;;;;;13.74;41.92;100374.06;5075832;28;19955;-67
2023/10/23 02:40:53;;;;;;;;;;;;;;;13.75;42.30;100377.59;5093621;28;19919;-68
2023/10/23 02:43:18;;;;;;;;;;;;;;;13.78;42.23;100381.72;5094094;28;20003;-68
2023/10/23 02:45:43;;;;;;;;;;;;;;;13.79;42.32;100373.41;5093752;28;19965;-68
2023/10/23 02:48:09;;;;;;;;;;;;;;;13.83;42.11;100376.50;5102922;28;20360;-68
2023/10/23 02:50:34;;;;;;;;;;;;;;;13.80;42.04;100380.47;5114290;28;19912;-68
2023/10/23 02:52:59;;;;;;;;;;;;;;;13.79;42.26;100377.97;5114042;28;19919;-68
2023/10/23 02:55:25;;;;;;;;;;;;;;;13.81;41.95;100375.91;5113661;28;19925;-67
2023/10/23 02:57:50;;;;;;;;;;;;;;;13.79;41.71;100370.69;5113534;28;19918;-68
2023/10/23 03:00:15;;;;;;;;;;;;;;;13.79;41.86;100373.41;5114146;28;19972;-68
2023/10/23 03:02:43;;;;;;;;;;;;;;;13.75;42.10;100373.00;5100972;28;19928;-68
2023/10/23 03:05:08;;;;;;;;;;;;;;;13.75;42.05;100375.72;5093816;28;20257;-68
2023/10/23 03:07:34;;;;;;;;;;;;;;;13.73;42.13;100379.69;5093429;28;19973;-68
2023/10/23 03:09:59;;;;;;;;;;;;;;;13.73;42.00;100376.97;5093277;28;20222;-68
2023/10/23 03:12:24;;;;;;;;;;;;;;;13.73;42.17;100376.97;5093730;28;19912;-68
2023/10/23 03:14:49;;;;;;;;;;;;;;;13.71;42.10;100376.38;5093761;28;19912;-67
2023/10/23 03:17:15;;;;;;;;;;;;;;;13.71;42.05;100376.38;5093714;28;19916;-68
2023/10/23 03:19:40;;;;;;;;;;;;;;;13.71;42.24;100377.19;5093646;28;19916;-68
2023/10/23 03:22:05;;;;;;;;;;;;;;;13.73;42.12;100383.19;5075250;28;20373;-68
2023/10/23 03:24:30;;;;;;;;;;;;;;;13.75;41.83;100377.59;5093129;28;19916;-68
2023/10/23 03:26:56;;;;;;;;;;;;;;;13.75;41.92;100385.69;5093522;28;19912;-67
2023/10/23 03:29:21;;;;;;;;;;;;;;;13.74;41.99;100381.31;5093819;28;19916;-67
2023/10/23 03:31:46;;;;;;;;;;;;;;;13.73;42.22;100376.97;5093227;28;19924;-68
2023/10/23 03:34:11;;;;;;;;;;;;;;;13.70;42.24;100380.91;5093133;28;20003;-68
2023/10/23 03:36:37;;;;;;;;;;;;;;;13.70;41.99;100378.22;5093152;28;19912;-68
2023/10/23 03:39:02;;;;;;;;;;;;;;;13.67;42.29;100370.56;5093279;28;19927;-68
2023/10/23 03:41:27;;;;;;;;;;;;;;;13.68;42.25;100374.09;5093240;28;19946;-68
2023/10/23 03:43:53;;;;;;;;;;;;;;;13.69;42.14;100370.38;5097648;28;20032;-68
2023/10/23 03:46:18;;;;;;;;;;;;;;;13.68;42.30;100374.09;5113547;28;19977;-67
2023/10/23 03:48:46;;;;;;;;;;;;;;;13.67;41.99;100378.69;5113516;28;19934;-68
2023/10/23 03:51:11;;;;;;;;;;;;;;;13.66;41.99;100387.78;5095908;28;19912;-68
2023/10/23 03:53:36;;;;;;;;;;;;;;;13.63;42.42;100388.25;5097324;28;19937;-68
2023/10/23 03:56:05;;;;;;;;;;;;;;;13.66;42.15;100385.09;5096566;28;19920;-68
2023/10/23 03:58:30;;;;;;;;;;;;;;;13.64;42.02;100381.78;5097474;28;19912;-67
2023/10/23 04:00:56;;;;;;;;;;;;;;;13.63;41.86;100387.41;5097116;28;19913;-68
2023/10/23 04:03:21;;;;;;;;;;;;;;;13.64;41.90;100380.97;5096558;28;20299;-68
2023/10/23 04:05:48;;;;;;;;;;;;;;;13.64;42.19;100386.38;5097374;28;19912;-68
2023/10/23 04:08:14;;;;;;;;;;;;;;;13.62;41.96;100391.97;5096738;28;19931;-69
2023/10/23 04:10:46;;;;;;;;;;;;;;;13.61;41.84;100389.50;5096638;28;19927;-68
2023/10/23 04:13:11;;;;;;;;;;;;;;;13.60;42.04;100395.94;5096830;28;20038;-68
2023/10/23 04:15:37;;;;;;;;;;;;;;;13.58;41.72;100396.16;5096628;28;20334;-68
2023/10/23 04:18:02;;;;;;;;;;;;;;;13.57;42.07;100399.88;5096900;28;19913;-68
2023/10/23 04:20:29;;;;;;;;;;;;;;;13.57;42.23;100396.38;5096434;28;20262;-68
2023/10/23 04:22:54;;;;;;;;;;;;;;;13.57;42.17;100397.19;5096613;28;19916;-68
2023/10/23 04:25:20;;;;;;;;;;;;;;;13.57;41.98;100399.88;5096647;28;20284;-68
2023/10/23 04:27:45;;;;;;;;;;;;;;;13.59;42.16;100394.28;5078408;28;19912;-68
2023/10/23 04:30:11;;;;;;;;;;;;;;;13.60;42.10;100398.66;5096008;28;20346;-68
2023/10/23 04:32:36;;;;;;;;;;;;;;;13.60;41.77;100391.38;5096433;28;19912;-68
2023/10/23 04:35:02;;;;;;;;;;;;;;;13.61;41.92;100397.59;5101875;28;20007;-68
2023/10/23 04:37:27;;;;;;;;;;;;;;;13.60;42.09;100396.78;5095961;28;19913;-68
2023/10/23 04:39:52;;;;;;;;;;;;;;;13.62;41.90;100393.84;5097478;28;19918;-68
2023/10/23 04:42:17;;;;;;;;;;;;;;;13.63;42.08;100384.69;5107140;28;19920;-68
2023/10/23 04:44:43;;;;;;;;;;;;;;;13.63;42.04;100382.00;5096302;28;19912;-68
2023/10/23 04:47:08;;;;;;;;;;;;;;;13.63;41.84;100377.47;5095981;28;20284;-68
2023/10/23 04:49:33;;;;;;;;;;;;;;;13.62;41.90;100383.88;5078010;28;19935;-68
2023/10/23 04:51:59;;;;;;;;;;;;;;;13.60;41.79;100390.56;5112439;28;19912;-68
2023/10/23 04:54:24;;;;;;;;;;;;;;;13.59;41.84;100395.09;5115989;28;19912;-68
2023/10/23 04:56:49;;;;;;;;;;;;;;;13.60;42.16;100395.94;5116098;28;19977;-68
2023/10/23 04:59:15;;;;;;;;;;;;;;;13.59;42.15;100397.78;5107331;28;19961;-68
2023/10/23 05:01:40;;;;;;;;;;;;;;;13.60;42.16;100395.94;5095771;28;19916;-68
2023/10/23 05:04:05;;;;;;;;;;;;;;;13.64;42.23;100402.56;5110888;28;19920;-68
2023/10/23 05:06:30;;;;;;;;;;;;;;;13.64;41.98;100408.78;5095901;28;19912;-68
2023/10/23 05:08:56;;;;;;;;;;;;;;;13.64;41.89;100402.56;5095932;28;19976;-68
2023/10/23 05:11:21;;;;;;;;;;;;;;;13.64;41.64;100406.09;5095474;28;19923;-68
2023/10/23 05:13:46;;;;;;;;;;;;;;;13.65;42.00;100407.75;5095854;28;20444;-69
2023/10/23 05:16:15;;;;;;;;;;;;;;;13.66;42.10;100408.56;5097514;28;20002;-69
2023/10/23 05:18:40;;;;;;;;;;;;;;;13.67;41.89;100408.34;5132101;27;19916;-69
2023/10/23 05:21:09;;;;;;;;;;;;;;;13.67;41.77;100405.66;5116216;28;20253;-69
2023/10/23 05:23:35;;;;;;;;;;;;;;;13.66;41.84;100408.56;5116097;28;19919;-68
2023/10/23 05:26:01;;;;;;;;;;;;;;;13.65;41.91;100410.44;5083999;28;19994;-68
2023/10/23 05:28:26;;;;;;;;;;;;;;;13.65;41.96;100413.16;5095645;28;20260;-68
2023/10/23 05:30:51;;;;;;;;;;;;;;;13.64;42.08;100414.19;5095523;28;19916;-68
2023/10/23 05:33:17;;;;;;;;;;;;;;;13.64;41.51;100408.78;5095181;28;19916;-68
2023/10/23 05:35:42;;;;;;;;;;;;;;;13.59;41.78;100407.78;5100735;28;19918;-68
2023/10/23 05:38:07;;;;;;;;;;;;;;;13.59;41.71;100407.78;5114414;28;20357;-68
2023/10/23 05:40:33;;;;;;;;;;;;;;;13.60;41.68;100415.66;5115882;28;19919;-68
2023/10/23 05:42:58;;;;;;;;;;;;;;;13.62;42.12;100415.44;5097460;28;19916;-68
2023/10/23 05:45:23;;;;;;;;;;;;;;;13.61;41.97;100420.00;5115531;28;19911;-67
2023/10/23 05:47:48;;;;;;;;;;;;;;;13.64;41.69;100413.34;5115531;28;19915;-67
2023/10/23 05:50:14;;;;;;;;;;;;;;;13.64;41.71;100424.97;5115227;28;19911;-67
2023/10/23 05:52:39;;;;;;;;;;;;;;;13.65;41.49;100426.63;5115125;28;19998;-67
2023/10/23 05:55:05;;;;;;;;;;;;;;;13.66;41.46;100428.28;5106187;28;19923;-67
2023/10/23 05:57:31;;;;;;;;;;;;;;;13.66;41.57;100425.59;5094509;28;19919;-67
2023/10/23 05:59:57;;;;;;;;;;;;;;;13.67;41.66;100429.09;5094865;28;19920;-68
2023/10/23 06:02:22;;;;;;;;;;;;;;;13.68;41.81;100428.06;5094684;28;19920;-68
2023/10/23 06:04:47;;;;;;;;;;;;;;;13.70;41.89;100439.47;5094871;28;20015;-68
2023/10/23 06:07:12;;;;;;;;;;;;;;;13.73;41.54;100439.06;5095229;28;20399;-68
2023/10/23 06:09:38;;;;;;;;;;;;;;;13.75;41.57;100437.78;5094666;28;19919;-66
2023/10/23 06:12:04;;;;;;;;;;;;;;;13.77;41.69;100439.44;5094475;28;19920;-67
2023/10/23 06:14:29;;;;;;;;;;;;;;;13.75;41.53;100439.66;5093863;28;19916;-67
2023/10/23 06:16:55;;;;;;;;;;;;;;;13.79;41.51;100440.06;5102613;28;19912;-67
2023/10/23 06:19:20;;;;;;;;;;;;;;;13.78;41.89;100447.34;5114775;28;20237;-67
2023/10/23 06:21:45;;;;;;;;;;;;;;;13.74;41.64;100438.84;5125391;27;20300;-67
2023/10/23 06:24:10;;;;;;;;;;;;;;;13.75;41.36;100437.78;5094357;28;19919;-67
2023/10/23 06:26:36;;;;;;;;;;;;;;;13.74;41.44;100435.28;5094314;28;19916;-67
2023/10/23 06:29:01;;;;;;;;;;;;;;;13.74;41.78;100441.53;5094703;28;19916;-69
2023/10/23 06:31:26;;;;;;;;;;;;;;;13.73;41.56;100445.28;5094303;28;19986;-68
2023/10/23 06:33:52;;;;;;;;;;;;;;;13.77;41.80;100448.38;5096254;28;19915;-69
2023/10/23 06:36:17;;;;;;;;;;;;;;;13.79;41.69;100454.38;5099547;28;19915;-66
2023/10/23 06:38:43;;;;;;;;;;;;;;;13.81;41.48;100456.88;5094161;28;20046;-70
2023/10/23 06:41:08;;;;;;;;;;;;;;;13.83;41.83;100460.19;5093951;28;20486;-69
2023/10/23 06:43:35;;;;;;;;;;;;;;;13.83;41.61;100458.28;5093968;28;19924;-69
2023/10/23 06:46:01;;;;;;;;;;;;;;;13.86;41.33;100462.47;5075740;28;19966;-67
2023/10/23 06:48:26;;;;;;;;;;;;;;;13.89;41.76;100465.56;5093969;28;19912;-67
2023/10/23 06:50:51;;;;;;;;;;;;;;;13.87;41.47;100470.34;5094826;28;19948;-67
2023/10/23 06:53:17;;;;;;;;;;;;;;;13.87;41.47;100461.41;5094529;28;19969;-68
2023/10/23 06:56:01;;;;;;;;;;;;;;;13.88;41.30;100461.19;5075953;28;19924;-67
2023/10/23 06:58:26;;;;;;;;;;;;;;;13.89;41.66;100470.09;5114886;28;19919;-68
2023/10/23 07:00:52;;;;;;;;;;;;;;;13.88;41.63;100468.47;5114362;28;19916;-68
2023/10/23 07:03:17;;;;;;;;;;;;;;;13.91;41.79;100468.88;5096029;28;19920;-68
2023/10/23 07:05:43;;;;;;;;;;;;;;;13.92;41.45;100481.31;5093060;28;19916;-67
2023/10/23 07:08:08;;;;;;;;;;;;;;;13.96;41.54;100481.69;5093219;28;19934;-67
2023/10/23 07:10:34;;;;;;;;;;;;;;;14.00;41.30;100477.53;5093069;28;19945;-68
2023/10/23 07:12:59;;;;;;;;;;;;;;;14.04;41.55;100489.56;5093511;28;20276;-68
2023/10/23 07:15:24;;;;;;;;;;;;;;;14.05;40.98;100488.50;5093853;28;20375;-69
2023/10/23 07:17:50;;;;;;;;;;;;;;;14.10;41.42;100498.69;5109844;28;19912;-67
2023/10/23 07:20:17;;;;;;;;;;;;;;;14.10;41.12;100488.69;5094919;28;20357;-67
2023/10/23 07:22:42;;;;;;;;;;;;;;;14.17;41.48;100498.63;5095126;28;19942;-68
2023/10/23 07:25:08;;;;;;;;;;;;;;;14.21;41.29;100502.53;5095348;28;20451;-68
2023/10/23 07:27:33;;;;;;;;;;;;;;;14.21;41.02;100497.13;5101407;28;19961;-67
2023/10/23 07:29:58;;;;;;;;;;;;;;;14.23;41.03;100492.38;5115198;28;19999;-68
2023/10/23 07:32:24;;;;;;;;;;;;;;;14.26;41.47;100494.63;5103594;28;19919;-68
2023/10/23 07:34:51;;;;;;;;;;;;;;;14.27;41.08;100496.28;5121927;28;20372;-68
2023/10/23 07:37:18;;;;;;;;;;;;;;;14.32;41.33;100491.91;5105937;28;20014;-68
2023/10/23 07:39:47;;;;;;;;;;;;;;;14.39;40.94;100499.94;5101337;28;19919;-68
2023/10/23 07:42:12;;;;;;;;;;;;;;;14.44;41.22;100500.13;5101226;28;19927;-69
2023/10/23 07:44:37;;;;;;;;;;;;;;;14.51;40.74;100497.38;5101176;28;19912;-69
2023/10/23 07:47:03;;;;;;;;;;;;;;;14.56;40.67;100500.25;5100981;28;19916;-69
2023/10/23 07:49:29;;;;;;;;;;;;;;;14.57;40.68;100506.50;5101232;28;19912;-69
2023/10/23 07:51:54;;;;;;;;;;;;;;;14.62;40.89;100514.81;5100819;28;20010;-68
2023/10/23 07:54:20;;;;;;;;;;;;;;;14.66;41.22;100511.44;5100921;28;19916;-69
2023/10/23 07:56:45;;;;;;;;;;;;;;;14.71;40.72;100517.00;5101168;28;19951;-68
2023/10/23 07:59:11;;;;;;;;;;;;;;;14.77;40.60;100518.00;5082871;28;20003;-68
2023/10/23 08:01:36;;;;;;;;;;;;;;;14.88;40.51;100516.47;5100377;28;19977;-68
2023/10/23 08:04:01;;;;;;;;;;;;;;;14.91;40.15;100516.00;5082499;28;19916;-68
2023/10/23 08:06:26;;;;;;;;;;;;;;;14.94;39.88;100528.28;5100794;28;19963;-68
2023/10/23 08:08:52;;;;;;;;;;;;;;;14.93;39.93;100530.13;5101682;28;19923;-68
2023/10/23 08:11:17;;;;;;;;;;;;;;;14.92;39.71;100530.38;5101048;28;20150;-68
2023/10/23 08:13:42;;;;;;;;;;;;;;;14.93;40.35;100540.13;5100660;28;19920;-67
2023/10/23 08:16:07;;;;;;;;;;;;;;;14.88;40.48;100536.22;5103016;28;19919;-67
2023/10/23 08:18:34;;;;;;;;;;;;;;;14.89;40.70;100540.59;5123504;28;20378;-67
2023/10/23 08:20:59;;;;;;;;;;;;;;;14.93;40.06;100540.13;5123287;28;19970;-67
2023/10/23 08:23:25;;;;;;;;;;;;;;;14.94;40.21;100542.63;5107979;28;19916;-67
2023/10/23 08:25:50;;;;;;;;;;;;;;;14.93;40.30;100540.94;5093568;28;20434;-67
2023/10/23 08:28:15;;;;;;;;;;;;;;;14.93;39.82;100532.84;5100725;28;19912;-68
2023/10/23 08:30:41;;;;;;;;;;;;;;;14.98;39.84;100540.31;5100799;28;19912;-67
2023/10/23 08:33:06;;;;;;;;;;;;;;;15.03;40.13;100541.31;5100738;28;19919;-68
2023/10/23 08:35:32;;;;;;;;;;;;;;;15.11;40.25;100537.47;5087847;28;20287;-68
2023/10/23 08:37:57;;;;;;;;;;;;;;;15.13;40.05;100537.25;5097870;28;19919;-68
2023/10/23 08:40:22;;;;;;;;;;;;;;;15.19;39.85;100547.19;5079348;28;19915;-68
2023/10/23 08:42:48;;;;;;;;;;;;;;;15.22;39.31;100547.56;5097338;28;19948;-68
2023/10/23 08:45:17;;;;;;;;;;;;;;;15.25;40.19;100557.97;5078715;28;19959;-68
2023/10/23 08:47:42;;;;;;;;;;;;;;;15.32;40.22;100554.34;5097797;28;19960;-68
2023/10/23 08:50:08;;;;;;;;;;;;;;;15.36;40.20;100558.25;5096939;28;20109;-67
2023/10/23 08:52:44;;;;;;;;;;;;;;;15.34;39.69;100554.97;5096789;28;19919;-68
2023/10/23 08:55:11;;;;;;;;;;;;;;;15.32;39.79;100560.59;5096375;28;19970;-68
2023/10/23 08:57:39;;;;;;;;;;;;;;;15.31;39.98;100555.44;5096672;28;19912;-68
2023/10/23 09:00:06;;;;;;;;;;;;;;;15.36;40.54;100560.97;5097141;28;20027;-68
2023/10/23 09:02:32;;;;;;;;;;;;;;;15.41;40.55;100556.53;5085869;28;20386;-67
2023/10/23 09:04:57;;;;;;;;;;;;;;;15.41;39.58;100559.25;5092383;28;19912;-68
2023/10/23 09:07:22;;;;;;;;;;;;;;;15.48;39.91;100561.91;5059085;28;19920;-67
2023/10/23 09:09:48;;;;;;;;;;;;;;;15.51;39.69;100558.75;5076500;28;19912;-67
2023/10/23 09:12:30;;;;;;;;;;;;;;;15.55;39.51;100565.38;5091146;28;20367;-68
2023/10/23 09:14:55;;;;;;;;;;;;;;;15.59;39.43;100563.06;5096810;28;19947;-68
2023/10/23 09:17:24;;;;;;;;;;;;;;;15.68;39.56;100567.94;5108648;28;19954;-68
2023/10/23 09:19:49;;;;;;;;;;;;;;;15.81;38.94;100571.59;5100455;28;19962;-68
2023/10/23 09:22:15;;;;;;;;;;;;;;;15.94;38.75;100568.72;5108179;28;19920;-68
2023/10/23 09:24:40;;;;;;;;;;;;;;;16.05;39.09;100572.56;5114286;28;19911;-68
2023/10/23 09:27:05;;;;;;;;;;;;;;;16.16;38.94;100579.94;5096453;28;20015;-68
2023/10/23 09:29:30;;;;;;;;;;;;;;;15.83;38.66;100520.75;5096568;28;20369;-68
2023/10/23 09:31:57;;;;;;;;;;;;;;;16.24;38.77;100582.31;5096535;28;19912;-68
2023/10/23 09:34:23;;;;;;;;;;;;;;;16.31;38.56;100579.53;5096193;28;19920;-68
2023/10/23 09:36:52;;;;;;;;;;;;;;;16.36;38.54;100582.38;5095795;28;19919;-68
2023/10/23 09:39:17;;;;;;;;;;;;;;;16.47;38.31;100585.34;5095962;28;20420;-68
2023/10/23 09:41:45;;;;;;;;;;;;;;;16.59;38.24;100584.34;5095791;28;19959;-68
2023/10/23 09:44:12;;;;;;;;;;;;;;;16.60;38.01;100585.16;5095708;28;19912;-67
2023/10/23 09:46:37;;;;;;;;;;;;;;;16.65;37.72;100590.72;5077671;28;19912;-68
2023/10/23 09:49:04;;;;;;;;;;;;;;;16.69;37.92;100580.25;5095912;28;20060;-68
2023/10/23 09:51:31;;;;;;;;;;;;;;;16.73;37.71;100587.66;5095825;28;19951;-68
2023/10/23 09:54:00;;;;;;;;;;;;;;;16.77;37.42;100588.03;5095381;28;20348;-67
2023/10/23 09:56:26;;;;;;;;;;;;;;;16.90;37.80;100585.19;5096012;28;20017;-68
2023/10/23 09:59:04;;;;;;;;;;;;;;;17.00;37.38;100584.59;5077733;28;19911;-68
2023/10/23 10:01:49;;;;;;;;;;;;;;;17.13;36.98;100591.72;5095516;28;20313;-68
2023/10/23 10:04:21;;;;;;;;;;;;;;;17.25;37.83;100586.28;5095642;28;20372;-68
2023/10/23 10:06:48;;;;;;;;;;;;;;;17.37;37.19;100579.78;5095004;28;19912;-68
2023/10/23 10:09:13;;;;;;;;;;;;;;;17.49;37.56;100584.41;5074964;28;19975;-68
2023/10/23 10:11:40;;;;;;;;;;;;;;;17.59;37.28;100590.91;5074850;28;20401;-68
2023/10/23 10:14:07;;;;;;;;;;;;;;;17.68;36.46;100585.09;5075148;28;19987;-68
2023/10/23 10:16:33;;;;;;;;;;;;;;;17.78;36.23;100577.19;5099884;28;20026;-68
2023/10/23 10:18:59;;;;;;;;;;;;;;;17.75;36.38;100580.34;5115675;28;19912;-68
2023/10/23 10:21:27;;;;;;;;;;;;;;;17.75;36.56;100577.66;5115416;28;20429;-68
2023/10/23 10:23:53;;;;;;;;;;;;;;;17.78;36.70;100579.91;5115300;28;19915;-68
2023/10/23 10:26:18;;;;;;;;;;;;;;;17.76;36.36;100577.41;5081114;28;20341;-68
2023/10/23 10:28:50;;;;;;;;;;;;;;;17.79;37.02;100584.25;5076810;28;19920;-68
2023/10/23 10:31:16;;;;;;;;;;;;;;;17.89;36.90;100589.94;5095477;28;20269;-69
2023/10/23 10:33:41;;;;;;;;;;;;;;;18.07;36.52;100585.41;5094784;28;19916;-68
2023/10/23 10:36:07;;;;;;;;;;;;;;;18.23;36.34;100589.28;5100480;28;19912;-67
2023/10/23 10:38:33;;;;;;;;;;;;;;;18.37;36.77;100590.66;5094826;28;20394;-68
2023/10/23 10:41:00;;;;;;;;;;;;;;;18.54;35.41;100582.53;5094721;28;19958;-68
2023/10/23 10:43:37;;;;;;;;;;;;;;;18.83;35.84;100583.34;5094820;28;20352;-68
2023/10/23 10:46:12;;;;;;;;;;;;;;;18.96;34.90;100584.91;5110527;28;19969;-69
2023/10/23 10:48:45;;;;;;;;;;;;;;;19.10;35.82;100582.72;5094620;28;20003;-68
2023/10/23 10:51:13;;;;;;;;;;;;;;;19.25;36.23;100582.94;5104104;28;20404;-68
2023/10/23 10:53:40;;;;;;;;;;;;;;;19.21;35.23;100584.53;5109058;28;20403;-69
2023/10/23 10:56:08;;;;;;;;;;;;;;;19.14;33.30;100575.69;5095274;28;19944;-69
2023/10/23 10:58:34;;;;;;;;;;;;;;;18.88;35.49;100580.72;5095264;28;19935;-69
2023/10/23 11:00:59;;;;;;;;;;;;;;;18.66;36.17;100580.56;5094231;28;19912;-69
2023/10/23 11:03:26;;;;;;;;;;;;;;;18.53;36.17;100578.16;5094412;28;19923;-69
2023/10/23 11:05:52;;;;;;;;;;;;;;;18.55;36.57;100578.72;5076711;28;19912;-69
2023/10/23 11:08:17;;;;;;;;;;;;;;;18.40;36.55;100581.16;5094817;28;19923;-69
2023/10/23 11:10:43;;;;;;;;;;;;;;;18.40;36.47;100579.25;5094198;28;19928;-69
2023/10/23 11:13:12;;;;;;;;;;;;;;;18.38;35.38;100575.97;5094491;28;19962;-69
2023/10/23 11:15:37;;;;;;;;;;;;;;;18.47;35.69;100571.78;5113284;28;19912;-69
2023/10/23 11:18:04;;;;;;;;;;;;;;;18.57;35.92;100574.72;5096439;28;19919;-68
2023/10/23 11:20:31;;;;;;;;;;;;;;;18.65;35.97;100586.28;5114836;28;19946;-68
2023/10/23 11:22:56;;;;;;;;;;;;;;;18.74;36.57;100592.97;5081322;28;20388;-68
2023/10/23 11:25:21;;;;;;;;;;;;;;;18.74;35.43;100584.81;5094170;28;20344;-69
2023/10/23 11:27:49;;;;;;;;;;;;;;;18.82;34.55;100587.13;5094461;28;19922;-68
2023/10/23 11:30:15;;;;;;;;;;;;;;;18.82;34.04;100587.13;5094169;28;19913;-67
2023/10/23 11:32:41;;;;;;;;;;;;;;;18.73;35.22;100586.69;5094091;28;19935;-68
2023/10/23 11:35:06;;;;;;;;;;;;;;;18.87;35.82;100589.97;5099546;28;19919;-68
2023/10/23 11:37:33;;;;;;;;;;;;;;;18.95;34.84;100589.53;5094876;28;19916;-68
2023/10/23 11:40:05;;;;;;;;;;;;;;;18.87;34.84;100597.28;5094280;28;19912;-68
2023/10/23 11:42:31;;;;;;;;;;;;;;;18.83;34.84;100601.56;5093895;28;19916;-68
2023/10/23 11:44:57;;;;;;;;;;;;;;;18.78;34.24;100605.00;5094490;28;19935;-68
2023/10/23 11:47:23;;;;;;;;;;;;;;;18.71;34.63;100599.69;5094016;28;20293;-68
2023/10/23 11:49:49;;;;;;;;;;;;;;;18.73;34.69;100604.91;5075681;28;19977;-68
2023/10/23 11:52:14;;;;;;;;;;;;;;;18.69;35.32;100604.56;5112145;28;19912;-68
2023/10/23 11:54:39;;;;;;;;;;;;;;;18.78;34.99;100602.28;5113827;28;19911;-68
2023/10/23 11:57:05;;;;;;;;;;;;;;;18.77;35.23;100608.78;5113642;28;19911;-68
2023/10/23 11:59:30;;;;;;;;;;;;;;;18.72;34.95;100600.53;5111506;28;19915;-68
2023/10/23 12:01:56;;;;;;;;;;;;;;;18.66;35.28;100605.03;5093868;28;19923;-68
2023/10/23 12:04:22;;;;;;;;;;;;;;;18.63;35.14;100610.16;5075809;28;19923;-68
2023/10/23 12:06:47;;;;;;;;;;;;;;;18.61;35.12;100607.69;5093901;28;20389;-68
2023/10/23 12:09:12;;;;;;;;;;;;;;;18.54;35.42;100612.44;5093717;28;19912;-68
2023/10/23 12:11:40;;;;;;;;;;;;;;;18.48;35.52;100613.41;5106314;28;19920;-68
2023/10/23 12:14:05;;;;;;;;;;;;;;;18.41;35.31;100621.72;5078049;28;20311;-67
2023/10/23 12:16:30;;;;;;;;;;;;;;;18.26;34.71;100615.97;5084097;28;19937;-66
2023/10/23 12:18:56;;;;;;;;;;;;;;;18.30;35.55;100622.59;5118326;28;19957;-67
2023/10/23 12:21:22;;;;;;;;;;;;;;;18.25;35.62;100626.00;5117970;28;20368;-68
2023/10/23 12:23:47;;;;;;;;;;;;;;;18.24;35.95;100620.81;5099234;28;19955;-68
2023/10/23 12:26:13;;;;;;;;;;;;;;;18.21;35.93;100627.56;5103039;28;20015;-68
2023/10/23 12:28:38;;;;;;;;;;;;;;;18.13;35.45;100623.34;5097576;28;19916;-68